Time;durP1;ratioP1;P1;durP2;ratioP2;P2;SDS_P1;SDS_P2;PMS_P1;PMS_P2;Temp;Humidity;BMP_temperature;BMP_pressure;BME280_temperature;BME280_humidity;BME280_pressure;Samples;Min_cycle;Max_cycle;Signal;HPM_P1;HPM_P2
2021/08/12 00:02:02;;;;;;;9.43;3.15;;;;;;;;;;5054347;28;20029;-53
2021/08/12 00:04:29;;;;;;;9.15;3.63;;;;;;;;;;5054820;28;20021;-53
2021/08/12 00:06:55;;;;;;;6.80;3.67;;;;;;;;;;5055112;28;20052;-53
2021/08/12 00:09:21;;;;;;;9.13;3.35;;;;;;;;;;5054781;28;20447;-53
2021/08/12 00:11:47;;;;;;;6.60;4.05;;;;;;;;;;5054057;28;20114;-53
2021/08/12 00:14:13;;;;;;;3.63;2.92;;;;;;;;;;5054668;28;20024;-52
2021/08/12 00:16:39;;;;;;;4.78;3.40;;;;;;;;;;5054397;28;20025;-53
2021/08/12 00:19:11;;;;;;;7.07;3.53;;;;;;;;;;5054734;28;20046;-52
2021/08/12 00:21:37;;;;;;;5.43;3.45;;;;;;;;;;5053685;28;20029;-53
2021/08/12 00:24:03;;;;;;;6.25;3.47;;;;;;;;;;5054964;28;20025;-52
2021/08/12 00:26:29;;;;;;;6.07;3.40;;;;;;;;;;5054568;28;20371;-53
2021/08/12 00:28:55;;;;;;;11.90;3.40;;;;;;;;;;5054604;28;20039;-53
2021/08/12 00:31:21;;;;;;;3.83;2.70;;;;;;;;;;5053845;28;20013;-53
2021/08/12 00:33:47;;;;;;;6.22;3.47;;;;;;;;;;5054120;28;20021;-53
2021/08/12 00:36:13;;;;;;;5.20;3.47;;;;;;;;;;5054096;28;20043;-52
2021/08/12 00:38:39;;;;;;;3.97;2.47;;;;;;;;;;5054084;28;20411;-53
2021/08/12 00:41:05;;;;;;;5.25;2.97;;;;;;;;;;5053926;28;20068;-53
2021/08/12 00:43:31;;;;;;;19.50;3.35;;;;;;;;;;5053604;28;20082;-53
2021/08/12 00:45:57;;;;;;;5.45;2.65;;;;;;;;;;5054348;28;20032;-53
2021/08/12 00:48:23;;;;;;;4.95;2.88;;;;;;;;;;5053781;28;20064;-52
2021/08/12 00:50:49;;;;;;;7.47;3.25;;;;;;;;;;5053638;28;20036;-53
2021/08/12 00:53:16;;;;;;;10.27;4.03;;;;;;;;;;5054239;28;20036;-52
2021/08/12 00:55:43;;;;;;;5.07;2.85;;;;;;;;;;5054397;28;20102;-53
2021/08/12 00:58:10;;;;;;;7.40;3.65;;;;;;;;;;5054184;28;20462;-53
2021/08/12 01:00:36;;;;;;;6.13;3.22;;;;;;;;;;5053154;28;20032;-52
2021/08/12 01:03:03;;;;;;;7.68;3.13;;;;;;;;;;5053862;28;20029;-53
2021/08/12 01:05:30;;;;;;;5.63;3.72;;;;;;;;;;5054042;28;20029;-53
2021/08/12 01:08:02;;;;;;;6.10;3.30;;;;;;;;;;5053719;28;20029;-54
2021/08/12 01:10:57;;;;;;;9.30;3.17;;;;;;;;;;5053726;28;20096;-53
2021/08/12 01:13:23;;;;;;;6.85;3.13;;;;;;;;;;5050965;28;20371;-53
2021/08/12 01:15:54;;;;;;;6.85;3.10;;;;;;;;;;5051010;28;20029;-52
2021/08/12 01:18:26;;;;;;;5.07;2.92;;;;;;;;;;5051165;28;20040;-53
2021/08/12 01:20:52;;;;;;;7.45;3.33;;;;;;;;;;5049871;28;20466;-53
2021/08/12 01:23:20;;;;;;;4.38;2.80;;;;;;;;;;5051161;28;20467;-52
2021/08/12 01:25:47;;;;;;;5.25;3.20;;;;;;;;;;5050850;28;20039;-52
2021/08/12 01:28:20;;;;;;;5.30;3.08;;;;;;;;;;5050186;28;20032;-53
2021/08/12 01:30:56;;;;;;;5.38;2.97;;;;;;;;;;5049834;28;20041;-53
2021/08/12 01:33:25;;;;;;;6.65;3.10;;;;;;;;;;5050989;28;20025;-52
2021/08/12 01:35:52;;;;;;;10.00;3.88;;;;;;;;;;5050535;28;20452;-52
2021/08/12 01:38:22;;;;;;;4.28;2.90;;;;;;;;;;5050437;28;20086;-52
2021/08/12 01:40:49;;;;;;;10.48;3.20;;;;;;;;;;5049975;28;20024;-53
2021/08/12 01:43:19;;;;;;;5.13;2.83;;;;;;;;;;5067222;28;20091;-53
2021/08/12 01:45:50;;;;;;;4.82;2.80;;;;;;;;;;5070486;28;20350;-52
2021/08/12 01:48:16;;;;;;;7.78;2.97;;;;;;;;;;5070856;28;20036;-53
2021/08/12 01:50:43;;;;;;;6.90;3.60;;;;;;;;;;5054144;28;20025;-53
2021/08/12 01:53:10;;;;;;;4.72;2.97;;;;;;;;;;5053288;28;20123;-53
2021/08/12 01:55:36;;;;;;;5.88;3.33;;;;;;;;;;5052853;28;20017;-53
2021/08/12 01:58:04;;;;;;;5.90;3.47;;;;;;;;;;5053014;28;20036;-53
2021/08/12 02:00:31;;;;;;;8.95;3.60;;;;;;;;;;5052541;28;20129;-52
2021/08/12 02:02:59;;;;;;;7.68;3.85;;;;;;;;;;5052597;28;20025;-52
2021/08/12 02:05:25;;;;;;;7.90;3.85;;;;;;;;;;5052762;28;20108;-52
2021/08/12 02:07:51;;;;;;;6.13;3.20;;;;;;;;;;5052675;28;20108;-52
2021/08/12 02:10:18;;;;;;;5.05;3.15;;;;;;;;;;5052855;28;20407;-52
2021/08/12 02:12:44;;;;;;;8.25;4.28;;;;;;;;;;5052099;28;20136;-52
2021/08/12 02:15:10;;;;;;;10.70;3.63;;;;;;;;;;5052770;28;20455;-52
2021/08/12 02:17:36;;;;;;;10.35;3.55;;;;;;;;;;5052916;28;20029;-52
2021/08/12 02:20:20;;;;;;;7.13;3.20;;;;;;;;;;5052606;28;20072;-53
2021/08/12 02:22:46;;;;;;;4.70;2.90;;;;;;;;;;5051805;28;20029;-52
2021/08/12 02:25:14;;;;;;;6.28;3.25;;;;;;;;;;5052925;28;20032;-52
2021/08/12 02:27:44;;;;;;;11.20;3.05;;;;;;;;;;5052676;28;20120;-52
2021/08/12 02:30:11;;;;;;;8.27;3.70;;;;;;;;;;5052201;28;20086;-52
2021/08/12 02:32:37;;;;;;;6.97;3.47;;;;;;;;;;5051396;28;20033;-52
2021/08/12 02:35:04;;;;;;;4.85;3.25;;;;;;;;;;5052509;28;20025;-52
2021/08/12 02:37:32;;;;;;;5.35;3.17;;;;;;;;;;5050383;28;20025;-53
2021/08/12 02:39:58;;;;;;;7.03;3.80;;;;;;;;;;5054162;28;20025;-52
2021/08/12 02:42:24;;;;;;;8.40;3.55;;;;;;;;;;5056267;28;20106;-52
2021/08/12 02:44:52;;;;;;;6.95;3.15;;;;;;;;;;5056177;28;20032;-52
2021/08/12 02:47:19;;;;;;;7.03;3.50;;;;;;;;;;5056743;28;20033;-52
2021/08/12 02:49:46;;;;;;;5.32;3.35;;;;;;;;;;5056004;28;20411;-52
2021/08/12 02:52:14;;;;;;;6.05;3.75;;;;;;;;;;5052240;28;20355;-52
2021/08/12 02:54:40;;;;;;;6.70;3.15;;;;;;;;;;5076393;28;20021;-52
2021/08/12 02:57:07;;;;;;;7.57;3.80;;;;;;;;;;5076311;28;20458;-53
2021/08/12 02:59:33;;;;;;;10.32;3.70;;;;;;;;;;5076510;28;20048;-52
2021/08/12 03:01:59;;;;;;;16.00;3.67;;;;;;;;;;5075138;28;20419;-53
2021/08/12 03:04:26;;;;;;;11.60;3.90;;;;;;;;;;5075873;28;20032;-53
2021/08/12 03:06:56;;;;;;;8.02;3.72;;;;;;;;;;5076281;28;20103;-53
2021/08/12 03:09:22;;;;;;;;;;;;;;;;;;5076461;28;20040;-53
2021/08/12 03:11:48;;;;;;;4.55;3.03;;;;;;;;;;5072412;28;19905;-53
2021/08/12 03:14:15;;;;;;;7.43;4.13;;;;;;;;;;5075915;28;20028;-53
2021/08/12 03:16:41;;;;;;;12.43;3.78;;;;;;;;;;5075992;28;20024;-53
2021/08/12 03:19:07;;;;;;;5.57;3.53;;;;;;;;;;5075458;28;20031;-53
2021/08/12 03:21:33;;;;;;;7.82;3.35;;;;;;;;;;5075202;28;20025;-53
2021/08/12 03:24:04;;;;;;;5.38;2.97;;;;;;;;;;5075683;28;20036;-53
2021/08/12 03:26:30;;;;;;;4.85;3.03;;;;;;;;;;5075821;28;20033;-53
2021/08/12 03:28:56;;;;;;;8.57;3.53;;;;;;;;;;5075075;28;20115;-53
2021/08/12 03:31:22;;;;;;;7.80;3.90;;;;;;;;;;5075024;28;20473;-53
2021/08/12 03:33:48;;;;;;;8.30;2.67;;;;;;;;;;5075855;28;20029;-53
2021/08/12 03:36:14;;;;;;;5.38;3.03;;;;;;;;;;5060427;28;20495;-53
2021/08/12 03:38:40;;;;;;;5.82;3.53;;;;;;;;;;5055216;28;20122;-53
2021/08/12 03:41:06;;;;;;;6.25;3.80;;;;;;;;;;5054573;28;20053;-52
2021/08/12 03:43:32;;;;;;;6.32;3.42;;;;;;;;;;5055532;28;20025;-52
2021/08/12 03:45:58;;;;;;;8.95;3.60;;;;;;;;;;5055478;28;20025;-52
2021/08/12 03:48:24;;;;;;;8.00;3.55;;;;;;;;;;5055487;28;20033;-52
2021/08/12 03:50:50;;;;;;;6.53;3.00;;;;;;;;;;5054369;28;20048;-53
2021/08/12 03:53:16;;;;;;;12.27;2.85;;;;;;;;;;5055018;28;20028;-52
2021/08/12 03:55:42;;;;;;;5.57;3.25;;;;;;;;;;5054972;28;20079;-53
2021/08/12 03:58:08;;;;;;;6.80;3.20;;;;;;;;;;5055288;28;20062;-53
2021/08/12 04:00:34;;;;;;;8.30;3.72;;;;;;;;;;5054697;28;20021;-53
2021/08/12 04:03:00;;;;;;;6.72;3.83;;;;;;;;;;5054727;28;20442;-53
2021/08/12 04:05:26;;;;;;;5.82;3.58;;;;;;;;;;5055439;28;20025;-52
2021/08/12 04:07:52;;;;;;;10.98;4.78;;;;;;;;;;5054714;28;20079;-52
2021/08/12 04:10:18;;;;;;;4.03;2.83;;;;;;;;;;5054531;28;20069;-53
2021/08/12 04:12:44;;;;;;;4.80;3.00;;;;;;;;;;5054124;28;20017;-52
2021/08/12 04:15:10;;;;;;;5.47;2.95;;;;;;;;;;5055184;28;20095;-52
2021/08/12 04:17:36;;;;;;;7.90;3.22;;;;;;;;;;5054960;28;20055;-52
2021/08/12 04:20:02;;;;;;;9.25;3.38;;;;;;;;;;5054534;28;20056;-52
2021/08/12 04:22:28;;;;;;;5.22;3.58;;;;;;;;;;5054100;28;20025;-53
2021/08/12 04:24:54;;;;;;;4.47;3.03;;;;;;;;;;5054165;28;20032;-52
2021/08/12 04:27:20;;;;;;;5.55;3.05;;;;;;;;;;5053475;28;20108;-53
2021/08/12 04:29:46;;;;;;;7.18;4.28;;;;;;;;;;5054658;28;20095;-53
2021/08/12 04:32:12;;;;;;;8.20;3.75;;;;;;;;;;5066170;28;20024;-52
2021/08/12 04:34:38;;;;;;;4.90;3.70;;;;;;;;;;5090438;28;20036;-52
2021/08/12 04:37:04;;;;;;;5.25;3.10;;;;;;;;;;5054635;28;20476;-52
2021/08/12 04:39:30;;;;;;;6.20;3.17;;;;;;;;;;5053734;28;20156;-52
2021/08/12 04:41:56;;;;;;;5.32;2.70;;;;;;;;;;5053787;28;20025;-52
2021/08/12 04:44:22;;;;;;;6.88;3.22;;;;;;;;;;5054116;28;20025;-52
2021/08/12 04:46:48;;;;;;;6.72;3.42;;;;;;;;;;5054191;28;20029;-52
2021/08/12 04:49:14;;;;;;;6.50;3.70;;;;;;;;;;5054055;28;20443;-52
2021/08/12 04:51:42;;;;;;;7.85;3.45;;;;;;;;;;5053416;28;20029;-52
2021/08/12 04:54:08;;;;;;;8.65;2.90;;;;;;;;;;5053546;28;20458;-52
2021/08/12 04:56:34;;;;;;;6.15;3.30;;;;;;;;;;5054226;28;20082;-52
2021/08/12 04:59:00;;;;;;;6.75;3.40;;;;;;;;;;5054238;28;20032;-52
2021/08/12 05:01:26;;;;;;;9.65;3.28;;;;;;;;;;5053217;28;20339;-52
2021/08/12 05:03:52;;;;;;;5.68;3.13;;;;;;;;;;5052953;28;20105;-52
2021/08/12 05:06:18;;;;;;;6.68;3.45;;;;;;;;;;5053800;28;20017;-52
2021/08/12 05:08:44;;;;;;;10.27;3.03;;;;;;;;;;5053002;28;20039;-52
2021/08/12 05:11:11;;;;;;;12.98;3.45;;;;;;;;;;5053360;28;20029;-52
2021/08/12 05:13:37;;;;;;;9.05;3.92;;;;;;;;;;5053815;28;20029;-53
2021/08/12 05:16:04;;;;;;;4.70;3.17;;;;;;;;;;5053691;28;20335;-53
2021/08/12 05:18:30;;;;;;;4.80;3.03;;;;;;;;;;5053356;28;20460;-52
2021/08/12 05:20:56;;;;;;;6.97;3.30;;;;;;;;;;5052842;28;20096;-53
2021/08/12 05:23:22;;;;;;;10.32;3.38;;;;;;;;;;5052520;28;20037;-50
2021/08/12 05:25:54;;;;;;;4.53;2.85;;;;;;;;;;5069433;28;20395;-50
2021/08/12 05:28:20;;;;;;;10.95;4.07;;;;;;;;;;5070451;28;20323;-51
2021/08/12 05:30:46;;;;;;;9.40;3.72;;;;;;;;;;5069213;28;20127;-51
2021/08/12 05:33:12;;;;;;;6.32;3.60;;;;;;;;;;5070510;28;20082;-50
2021/08/12 05:35:38;;;;;;;6.82;3.40;;;;;;;;;;5069653;28;20036;-50
2021/08/12 05:38:04;;;;;;;7.47;3.75;;;;;;;;;;5069937;28;20029;-51
2021/08/12 05:40:30;;;;;;;6.15;3.47;;;;;;;;;;5069454;28;20115;-51
2021/08/12 05:42:57;;;;;;;11.13;3.35;;;;;;;;;;5069367;28;20071;-51
2021/08/12 05:45:23;;;;;;;8.77;4.03;;;;;;;;;;5070041;28;20033;-51
2021/08/12 05:47:49;;;;;;;10.85;4.32;;;;;;;;;;5069604;28;20027;-51
2021/08/12 05:50:15;;;;;;;15.35;4.40;;;;;;;;;;5069400;28;20050;-51
2021/08/12 05:52:41;;;;;;;8.55;4.30;;;;;;;;;;5069131;28;20028;-51
2021/08/12 05:55:08;;;;;;;11.05;4.13;;;;;;;;;;5069452;28;20649;-51
2021/08/12 05:57:34;;;;;;;10.95;3.70;;;;;;;;;;5069972;28;20016;-51
2021/08/12 06:00:00;;;;;;;13.63;4.25;;;;;;;;;;5069276;28;20024;-51
2021/08/12 06:02:26;;;;;;;7.60;4.38;;;;;;;;;;5068939;28;20062;-51
2021/08/12 06:04:52;;;;;;;8.07;4.35;;;;;;;;;;5068959;28;20473;-51
2021/08/12 06:07:18;;;;;;;9.77;4.20;;;;;;;;;;5069682;28;20079;-51
2021/08/12 06:09:44;;;;;;;7.15;4.13;;;;;;;;;;5069204;28;20036;-50
2021/08/12 06:12:10;;;;;;;11.70;4.22;;;;;;;;;;5068888;28;20393;-51
2021/08/12 06:14:36;;;;;;;10.75;4.10;;;;;;;;;;5069096;28;20496;-50
2021/08/12 06:17:02;;;;;;;8.60;4.47;;;;;;;;;;5069084;28;20445;-51
2021/08/12 06:19:28;;;;;;;7.63;3.92;;;;;;;;;;5068775;28;20025;-51
2021/08/12 06:21:54;;;;;;;9.45;5.00;;;;;;;;;;5068129;28;20029;-51
2021/08/12 06:24:20;;;;;;;8.48;4.30;;;;;;;;;;5068988;28;20025;-51
2021/08/12 06:26:46;;;;;;;15.10;6.07;;;;;;;;;;5069122;28;20021;-51
2021/08/12 06:29:12;;;;;;;19.83;6.60;;;;;;;;;;5069109;28;20491;-51
2021/08/12 06:31:38;;;;;;;10.70;6.05;;;;;;;;;;5067805;28;20040;-51
2021/08/12 06:34:04;;;;;;;15.45;7.22;;;;;;;;;;5068934;28;20036;-51
2021/08/12 06:36:34;;;;;;;8.32;5.28;;;;;;;;;;5059607;28;20028;-50
2021/08/12 06:39:00;;;;;;;10.50;5.32;;;;;;;;;;5055618;28;20025;-51
2021/08/12 06:41:26;;;;;;;7.18;4.15;;;;;;;;;;5054642;28;20033;-51
2021/08/12 06:43:52;;;;;;;14.68;5.07;;;;;;;;;;5055581;28;20024;-51
2021/08/12 06:46:18;;;;;;;14.95;5.70;;;;;;;;;;5055707;28;20025;-51
2021/08/12 06:48:44;;;;;;;9.65;5.35;;;;;;;;;;5055107;28;20469;-51
2021/08/12 06:51:11;;;;;;;16.02;4.80;;;;;;;;;;5054742;28;20056;-51
2021/08/12 06:53:37;;;;;;;12.15;4.75;;;;;;;;;;5055055;28;20083;-50
2021/08/12 06:56:04;;;;;;;10.63;4.93;;;;;;;;;;5055310;28;20049;-51
2021/08/12 06:58:30;;;;;;;7.85;4.60;;;;;;;;;;5055291;28;20438;-51
2021/08/12 07:00:56;;;;;;;8.40;4.88;;;;;;;;;;5054490;28;20079;-50
2021/08/12 07:03:22;;;;;;;9.13;4.32;;;;;;;;;;5055517;28;20241;-51
2021/08/12 07:05:48;;;;;;;8.75;5.38;;;;;;;;;;5055281;28;20506;-50
2021/08/12 07:08:14;;;;;;;8.27;4.78;;;;;;;;;;5054856;28;20110;-51
2021/08/12 07:10:40;;;;;;;12.35;5.75;;;;;;;;;;5053884;28;20450;-50
2021/08/12 07:13:06;;;;;;;8.80;4.43;;;;;;;;;;5055094;28;20029;-51
2021/08/12 07:15:32;;;;;;;11.63;4.70;;;;;;;;;;5054869;28;20025;-51
2021/08/12 07:17:58;;;;;;;19.20;6.90;;;;;;;;;;5054768;28;20025;-51
2021/08/12 07:20:24;;;;;;;15.05;7.32;;;;;;;;;;5054776;28;20082;-51
2021/08/12 07:22:50;;;;;;;13.27;6.40;;;;;;;;;;5054238;28;20021;-51
2021/08/12 07:25:16;;;;;;;23.30;8.10;;;;;;;;;;5054251;28;20047;-50
2021/08/12 07:27:42;;;;;;;16.75;7.50;;;;;;;;;;5055006;28;20029;-51
2021/08/12 07:30:09;;;;;;;24.45;8.73;;;;;;;;;;5054740;28;20489;-51
2021/08/12 07:32:35;;;;;;;21.15;6.70;;;;;;;;;;5053226;28;20036;-50
2021/08/12 07:35:01;;;;;;;14.00;6.43;;;;;;;;;;5054660;28;20118;-51
2021/08/12 07:37:27;;;;;;;18.60;8.23;;;;;;;;;;5054325;28;20041;-50
2021/08/12 07:39:53;;;;;;;39.10;14.35;;;;;;;;;;5053060;28;20108;-50
2021/08/12 07:42:19;;;;;;;52.70;16.17;;;;;;;;;;5053515;28;20421;-51
2021/08/12 07:44:46;;;;;;;68.00;22.02;;;;;;;;;;5054111;28;20033;-51
2021/08/12 07:47:12;;;;;;;42.08;13.40;;;;;;;;;;5053463;28;20104;-51
2021/08/12 07:49:38;;;;;;;36.10;11.63;;;;;;;;;;5054338;28;20469;-50
2021/08/12 07:52:04;;;;;;;27.45;9.25;;;;;;;;;;5053877;28;20017;-51
2021/08/12 07:54:30;;;;;;;28.52;11.60;;;;;;;;;;5054412;28;20025;-51
2021/08/12 07:56:56;;;;;;;22.10;9.07;;;;;;;;;;5054035;28;20407;-51
2021/08/12 07:59:22;;;;;;;25.17;7.95;;;;;;;;;;5053915;28;20025;-51
2021/08/12 08:01:48;;;;;;;18.52;7.50;;;;;;;;;;5053601;28;20096;-51
2021/08/12 08:04:14;;;;;;;21.77;8.07;;;;;;;;;;5054106;28;20397;-51
2021/08/12 08:06:40;;;;;;;22.95;8.60;;;;;;;;;;5054057;28;20029;-51
2021/08/12 08:09:06;;;;;;;29.52;9.00;;;;;;;;;;5053668;28;20047;-51
2021/08/12 08:11:32;;;;;;;24.10;9.55;;;;;;;;;;5052684;28;20060;-51
2021/08/12 08:13:58;;;;;;;23.00;7.60;;;;;;;;;;5053713;28;20025;-51
2021/08/12 08:16:26;;;;;;;28.05;7.57;;;;;;;;;;5053529;28;20025;-51
2021/08/12 08:18:52;;;;;;;21.92;7.03;;;;;;;;;;5054041;28;20055;-51
2021/08/12 08:21:18;;;;;;;18.50;7.57;;;;;;;;;;5052542;28;20017;-50
2021/08/12 08:23:44;;;;;;;17.85;6.68;;;;;;;;;;5053583;28;20029;-51
2021/08/12 08:26:10;;;;;;;21.08;7.32;;;;;;;;;;5053517;28;20429;-51
2021/08/12 08:28:36;;;;;;;17.50;6.93;;;;;;;;;;5053625;28;20025;-51
2021/08/12 08:31:02;;;;;;;21.05;7.97;;;;;;;;;;5052466;28;20410;-51
2021/08/12 08:33:28;;;;;;;17.25;6.63;;;;;;;;;;5053596;28;20487;-50
2021/08/12 08:35:54;;;;;;;15.30;6.53;;;;;;;;;;5053616;28;20017;-50
2021/08/12 08:38:20;;;;;;;19.67;6.82;;;;;;;;;;5053314;28;20045;-51
2021/08/12 08:40:46;;;;;;;27.27;8.15;;;;;;;;;;5050271;28;20064;-51
2021/08/12 08:43:14;;;;;;;23.33;8.88;;;;;;;;;;5053056;28;20029;-50
2021/08/12 08:45:43;;;;;;;35.50;10.60;;;;;;;;;;5053433;28;20359;-50
2021/08/12 08:48:12;;;;;;;37.03;12.45;;;;;;;;;;5053043;28;20336;-51
2021/08/12 08:50:39;;;;;;;24.73;8.77;;;;;;;;;;5052417;28;20025;-51
2021/08/12 08:53:05;;;;;;;48.80;14.48;;;;;;;;;;5053102;28;20025;-51
2021/08/12 08:55:31;;;;;;;37.05;12.02;;;;;;;;;;5052526;28;20060;-51
2021/08/12 08:57:58;;;;;;;32.33;10.07;;;;;;;;;;5052991;28;20406;-50
2021/08/12 09:00:25;;;;;;;29.15;9.50;;;;;;;;;;5052399;28;20036;-51
2021/08/12 09:02:51;;;;;;;27.05;10.10;;;;;;;;;;5052363;28;20060;-51
2021/08/12 09:05:17;;;;;;;30.70;8.55;;;;;;;;;;5052905;28;20343;-51
2021/08/12 09:07:44;;;;;;;26.88;8.10;;;;;;;;;;5052956;28;20636;-51
2021/08/12 09:10:16;;;;;;;27.00;8.90;;;;;;;;;;5052351;28;20029;-51
2021/08/12 09:12:42;;;;;;;17.60;6.85;;;;;;;;;;5049062;28;20426;-51
2021/08/12 09:15:08;;;;;;;33.60;9.10;;;;;;;;;;5052940;28;20032;-50
2021/08/12 09:17:35;;;;;;;31.42;10.43;;;;;;;;;;5052965;28;20148;-51
2021/08/12 09:20:01;;;;;;;25.95;9.38;;;;;;;;;;5053067;28;20028;-51
2021/08/12 09:22:31;;;;;;;28.77;8.90;;;;;;;;;;5051810;28;20157;-51
2021/08/12 09:24:57;;;;;;;30.25;9.23;;;;;;;;;;5052334;28;20244;-51
2021/08/12 09:27:24;;;;;;;19.30;6.72;;;;;;;;;;5051952;28;20113;-51
2021/08/12 09:29:50;;;;;;;24.73;7.72;;;;;;;;;;5052777;28;20033;-51
2021/08/12 09:32:16;;;;;;;22.75;8.00;;;;;;;;;;5051816;28;20021;-51
2021/08/12 09:34:44;;;;;;;16.77;7.50;;;;;;;;;;5052709;28;20102;-51
2021/08/12 09:37:10;;;;;;;18.70;7.60;;;;;;;;;;5052751;28;20040;-51
2021/08/12 09:39:36;;;;;;;20.10;8.57;;;;;;;;;;5052071;28;20024;-50
2021/08/12 09:42:03;;;;;;;37.88;14.98;;;;;;;;;;5051454;28;20028;-51
2021/08/12 09:44:44;;;;;;;41.17;15.10;;;;;;;;;;5052443;28;20458;-51
2021/08/12 09:47:25;;;;;;;36.50;12.82;;;;;;;;;;5052528;28;20039;-51
2021/08/12 09:49:52;;;;;;;29.27;11.68;;;;;;;;;;5052449;28;20024;-51
2021/08/12 09:52:20;;;;;;;25.65;9.77;;;;;;;;;;5051490;28;20025;-51
2021/08/12 09:54:46;;;;;;;25.92;8.95;;;;;;;;;;5052650;28;20032;-51
2021/08/12 09:57:16;;;;;;;25.33;8.93;;;;;;;;;;5051953;28;20534;-51
2021/08/12 09:59:49;;;;;;;22.05;7.57;;;;;;;;;;5052620;28;20029;-51
2021/08/12 10:02:15;;;;;;;38.40;11.52;;;;;;;;;;5051356;28;20065;-51
2021/08/12 10:04:41;;;;;;;29.60;10.52;;;;;;;;;;5052194;28;20040;-51
2021/08/12 10:07:07;;;;;;;44.75;10.80;;;;;;;;;;5052247;28;20017;-51
2021/08/12 10:09:40;;;;;;;31.15;13.85;;;;;;;;;;5052195;28;20040;-50
2021/08/12 10:12:06;;;;;;;32.53;13.13;;;;;;;;;;5053623;28;20029;-51
2021/08/12 10:14:32;;;;;;;24.67;10.20;;;;;;;;;;5056371;28;20028;-51
2021/08/12 10:16:58;;;;;;;21.70;8.82;;;;;;;;;;5056283;28;20021;-51
2021/08/12 10:19:24;;;;;;;17.13;9.25;;;;;;;;;;5055566;28;20092;-51
2021/08/12 10:21:50;;;;;;;14.25;7.43;;;;;;;;;;5055211;28;20044;-51
2021/08/12 10:24:18;;;;;;;11.85;6.57;;;;;;;;;;5055537;28;20025;-51
2021/08/12 10:26:46;;;;;;;22.02;7.07;;;;;;;;;;5055751;28;20029;-51
2021/08/12 10:29:12;;;;;;;12.50;5.90;;;;;;;;;;5055557;28;20025;-51
2021/08/12 10:31:39;;;;;;;11.55;6.60;;;;;;;;;;5054800;28;20448;-51
2021/08/12 10:34:05;;;;;;;8.57;5.22;;;;;;;;;;5055816;28;20110;-51
2021/08/12 10:36:31;;;;;;;9.55;5.88;;;;;;;;;;5055407;28;20170;-51
2021/08/12 10:38:58;;;;;;;12.60;5.78;;;;;;;;;;5055345;28;20029;-50
2021/08/12 10:41:24;;;;;;;13.90;4.45;;;;;;;;;;5054368;28;20025;-50
2021/08/12 10:43:54;;;;;;;9.23;4.75;;;;;;;;;;5054929;28;20120;-51
2021/08/12 10:46:37;;;;;;;7.88;4.30;;;;;;;;;;5055346;28;20061;-51
2021/08/12 10:49:21;;;;;;;7.50;4.93;;;;;;;;;;5055434;28;20041;-51
2021/08/12 10:51:51;;;;;;;8.30;4.55;;;;;;;;;;5054746;28;20082;-51
2021/08/12 10:54:19;;;;;;;8.38;4.80;;;;;;;;;;5055584;28;20044;-51
2021/08/12 10:56:46;;;;;;;12.70;5.18;;;;;;;;;;5054844;28;20067;-51
2021/08/12 10:59:12;;;;;;;8.10;4.88;;;;;;;;;;5055115;28;20029;-51
2021/08/12 11:01:40;;;;;;;9.13;4.53;;;;;;;;;;5054704;28;20029;-51
2021/08/12 11:04:06;;;;;;;8.38;4.28;;;;;;;;;;5055004;28;20040;-50
2021/08/12 11:06:39;;;;;;;11.00;4.50;;;;;;;;;;5055219;28;20050;-51
2021/08/12 11:09:08;;;;;;;11.38;4.18;;;;;;;;;;5054954;28;20025;-51
2021/08/12 11:11:33;;;;;;;6.13;3.72;;;;;;;;;;5054175;28;20120;-51
2021/08/12 11:14:06;;;;;;;11.80;4.70;;;;;;;;;;5054896;28;20415;-51
2021/08/12 11:16:40;;;;;;;9.18;4.75;;;;;;;;;;5055137;28;20025;-51
2021/08/12 11:19:07;;;;;;;6.80;4.10;;;;;;;;;;5055058;28;20106;-51
2021/08/12 11:21:41;;;;;;;11.35;5.05;;;;;;;;;;5053761;28;20025;-51
2021/08/12 11:24:11;;;;;;;6.88;4.07;;;;;;;;;;5054690;28;20124;-50
2021/08/12 11:26:37;;;;;;;;;;;;;;;;;;5055120;28;20029;-51
2021/08/12 11:29:03;;;;;;;7.10;3.83;;;;;;;;;;5054639;28;20345;-51
2021/08/12 11:31:29;;;;;;;8.48;5.10;;;;;;;;;;5054151;28;20079;-51
2021/08/12 11:33:59;;;;;;;11.27;5.20;;;;;;;;;;5054298;28;20021;-50
2021/08/12 11:36:25;;;;;;;;;;;;;;;;;;5054603;28;20508;-51
2021/08/12 11:38:53;;;;;;;8.18;4.47;;;;;;;;;;5053578;28;19905;-51
2021/08/12 11:41:20;;;;;;;9.27;4.53;;;;;;;;;;5053564;28;20029;-51
2021/08/12 11:43:47;;;;;;;9.30;4.90;;;;;;;;;;5052916;28;20021;-51
2021/08/12 11:46:14;;;;;;;11.50;5.40;;;;;;;;;;5054270;28;20029;-51
2021/08/12 11:48:40;;;;;;;9.38;4.53;;;;;;;;;;5054025;28;20028;-52
2021/08/12 11:51:06;;;;;;;9.52;4.65;;;;;;;;;;5053154;28;20029;-51
2021/08/12 11:53:44;;;;;;;7.50;4.65;;;;;;;;;;5054215;28;20164;-51
2021/08/12 11:56:14;;;;;;;10.70;4.95;;;;;;;;;;5053938;28;20029;-51
2021/08/12 11:58:40;;;;;;;;;;;;;;;;;;5054673;28;20025;-51
2021/08/12 12:01:12;;;;;;;7.40;4.57;;;;;;;;;;5053329;28;19912;-51
2021/08/12 12:03:39;;;;;;;10.57;5.70;;;;;;;;;;5054349;28;20032;-51
2021/08/12 12:06:05;;;;;;;6.25;4.22;;;;;;;;;;5053804;28;20024;-51
2021/08/12 12:08:31;;;;;;;8.73;4.45;;;;;;;;;;5054114;28;20028;-51
2021/08/12 12:11:07;;;;;;;9.50;5.47;;;;;;;;;;5053236;28;20501;-51
2021/08/12 12:13:33;;;;;;;9.13;4.35;;;;;;;;;;5053696;28;20071;-51
2021/08/12 12:15:59;;;;;;;8.00;4.55;;;;;;;;;;5053507;28;20021;-51
2021/08/12 12:18:32;;;;;;;9.30;5.25;;;;;;;;;;5053741;28;20517;-51
2021/08/12 12:21:04;;;;;;;9.70;5.05;;;;;;;;;;5052908;28;20429;-51
2021/08/12 12:23:30;;;;;;;7.78;4.30;;;;;;;;;;5053413;28;20055;-52
2021/08/12 12:25:56;;;;;;;9.00;5.03;;;;;;;;;;5053663;28;20040;-51
2021/08/12 12:28:22;;;;;;;9.75;5.40;;;;;;;;;;5053547;28;20035;-51
2021/08/12 12:30:48;;;;;;;10.23;5.00;;;;;;;;;;5052223;28;20041;-51
2021/08/12 12:33:18;;;;;;;9.05;4.53;;;;;;;;;;5052917;28;20025;-51
2021/08/12 12:35:46;;;;;;;8.80;4.38;;;;;;;;;;5053090;28;20021;-51
2021/08/12 12:38:14;;;;;;;9.45;5.22;;;;;;;;;;5053463;28;20572;-51
2021/08/12 12:40:41;;;;;;;8.52;5.13;;;;;;;;;;5051816;28;20041;-51
2021/08/12 12:43:07;;;;;;;9.50;4.35;;;;;;;;;;5053179;28;20066;-50
2021/08/12 12:45:47;;;;;;;8.20;4.78;;;;;;;;;;5052929;28;20037;-51
2021/08/12 12:48:14;;;;;;;10.90;4.97;;;;;;;;;;5053297;28;20438;-51
2021/08/12 12:50:44;;;;;;;8.35;3.97;;;;;;;;;;5052436;28;20033;-51
2021/08/12 12:53:10;;;;;;;9.88;4.75;;;;;;;;;;5052833;28;20354;-51
2021/08/12 12:55:52;;;;;;;7.07;4.22;;;;;;;;;;5052619;28;20469;-51
2021/08/12 12:58:28;;;;;;;7.95;4.63;;;;;;;;;;5053188;28;20040;-51
2021/08/12 13:00:58;;;;;;;6.03;4.35;;;;;;;;;;5051862;28;20108;-51
2021/08/12 13:03:28;;;;;;;10.75;4.35;;;;;;;;;;5052997;28;20025;-50
2021/08/12 13:05:54;;;;;;;8.00;4.40;;;;;;;;;;5052511;28;20032;-51
2021/08/12 13:08:21;;;;;;;8.82;5.03;;;;;;;;;;5052792;28;20036;-51
2021/08/12 13:11:05;;;;;;;9.07;4.20;;;;;;;;;;5051968;28;20528;-51
2021/08/12 13:13:31;;;;;;;9.02;4.22;;;;;;;;;;5052978;28;20351;-51
2021/08/12 13:15:57;;;;;;;9.02;4.63;;;;;;;;;;5052492;28;20028;-51
2021/08/12 13:18:23;;;;;;;6.28;4.38;;;;;;;;;;5052406;28;20024;-51
2021/08/12 13:20:49;;;;;;;7.70;4.90;;;;;;;;;;5051802;28;20032;-51
2021/08/12 13:23:15;;;;;;;9.95;4.93;;;;;;;;;;5052723;28;20025;-51
2021/08/12 13:25:53;;;;;;;8.77;4.57;;;;;;;;;;5052484;28;20041;-51
2021/08/12 13:28:31;;;;;;;6.75;3.95;;;;;;;;;;5052537;28;20074;-51
2021/08/12 13:31:13;;;;;;;8.40;4.05;;;;;;;;;;5051210;28;20029;-51
2021/08/12 13:33:39;;;;;;;12.80;5.13;;;;;;;;;;5052773;28;20111;-51
2021/08/12 13:36:05;;;;;;;9.80;4.88;;;;;;;;;;5052490;28;20083;-51
2021/08/12 13:38:31;;;;;;;10.45;4.95;;;;;;;;;;5052668;28;20033;-50
2021/08/12 13:40:57;;;;;;;7.70;4.10;;;;;;;;;;5051729;28;20071;-51
2021/08/12 13:43:23;;;;;;;10.68;5.65;;;;;;;;;;5052305;28;20021;-51
2021/08/12 13:45:49;;;;;;;10.30;4.57;;;;;;;;;;5053110;28;20029;-51
2021/08/12 13:48:15;;;;;;;9.13;4.65;;;;;;;;;;5056681;28;20473;-51
2021/08/12 13:50:40;;;;;;;9.25;4.97;;;;;;;;;;5055394;28;20120;-51
2021/08/12 13:53:06;;;;;;;7.82;4.53;;;;;;;;;;5056778;28;20017;-51
2021/08/12 13:55:32;;;;;;;9.73;5.18;;;;;;;;;;5056611;28;20032;-51
2021/08/12 13:57:58;;;;;;;9.27;4.53;;;;;;;;;;5056178;28;20253;-51
2021/08/12 14:00:25;;;;;;;8.13;4.60;;;;;;;;;;5056398;28;20446;-51
2021/08/12 14:02:51;;;;;;;8.60;4.50;;;;;;;;;;5055450;28;20021;-51
2021/08/12 14:05:17;;;;;;;7.65;4.43;;;;;;;;;;5055842;28;20472;-51
2021/08/12 14:07:43;;;;;;;6.57;4.47;;;;;;;;;;5056615;28;20100;-51
2021/08/12 14:10:09;;;;;;;7.28;4.68;;;;;;;;;;5056221;28;20025;-51
2021/08/12 14:12:35;;;;;;;10.63;5.40;;;;;;;;;;5054951;28;20385;-51
2021/08/12 14:15:02;;;;;;;11.68;4.55;;;;;;;;;;5056058;28;20095;-51
2021/08/12 14:17:28;;;;;;;13.68;5.10;;;;;;;;;;5056209;28;20064;-51
2021/08/12 14:19:54;;;;;;;6.82;4.13;;;;;;;;;;5055647;28;20052;-52
2021/08/12 14:22:20;;;;;;;9.95;5.15;;;;;;;;;;5055176;28;20462;-51
2021/08/12 14:24:46;;;;;;;6.80;4.55;;;;;;;;;;5055637;28;20041;-51
2021/08/12 14:27:12;;;;;;;11.73;4.50;;;;;;;;;;5055523;28;20017;-51
2021/08/12 14:29:38;;;;;;;23.42;4.72;;;;;;;;;;5055726;28;20037;-51
2021/08/12 14:32:04;;;;;;;6.82;4.20;;;;;;;;;;5054379;28;20025;-52
2021/08/12 14:34:30;;;;;;;17.20;3.97;;;;;;;;;;5055971;28;20013;-51
2021/08/12 14:36:57;;;;;;;7.22;4.38;;;;;;;;;;5055700;28;20027;-51
2021/08/12 14:39:23;;;;;;;7.55;3.95;;;;;;;;;;5054596;28;20017;-51